sensor_id;sensor_type;location;lat;lon;timestamp;P1;durP1;ratioP1;P2;durP2;ratioP2
20014;SDS011;61787;42.022;23.078;2024-03-17T00:00:32;9.43;;;7.85;;
20014;SDS011;61787;42.022;23.078;2024-03-17T00:01:32;12.23;;;7.68;;
20014;SDS011;61787;42.022;23.078;2024-03-17T00:02:33;8.63;;;6.97;;
20014;SDS011;61787;42.022;23.078;2024-03-17T00:03:34;8.00;;;6.25;;
20014;SDS011;61787;42.022;23.078;2024-03-17T00:04:34;7.95;;;6.18;;
20014;SDS011;61787;42.022;23.078;2024-03-17T00:05:35;9.45;;;6.65;;
20014;SDS011;61787;42.022;23.078;2024-03-17T00:06:36;7.47;;;5.55;;
20014;SDS011;61787;42.022;23.078;2024-03-17T00:07:37;7.43;;;6.05;;
20014;SDS011;61787;42.022;23.078;2024-03-17T00:08:38;7.65;;;6.63;;
20014;SDS011;61787;42.022;23.078;2024-03-17T00:09:39;10.32;;;7.90;;
20014;SDS011;61787;42.022;23.078;2024-03-17T00:10:40;10.70;;;8.13;;
20014;SDS011;61787;42.022;23.078;2024-03-17T00:11:41;10.68;;;7.70;;
20014;SDS011;61787;42.022;23.078;2024-03-17T00:12:41;11.90;;;8.23;;
20014;SDS011;61787;42.022;23.078;2024-03-17T00:13:42;12.40;;;8.52;;
20014;SDS011;61787;42.022;23.078;2024-03-17T00:14:42;10.18;;;7.80;;
20014;SDS011;61787;42.022;23.078;2024-03-17T00:15:45;10.82;;;8.57;;
20014;SDS011;61787;42.022;23.078;2024-03-17T00:16:45;13.10;;;8.82;;
20014;SDS011;61787;42.022;23.078;2024-03-17T00:17:46;11.88;;;8.82;;
20014;SDS011;61787;42.022;23.078;2024-03-17T00:18:46;9.75;;;8.00;;
20014;SDS011;61787;42.022;23.078;2024-03-17T00:19:47;11.60;;;9.20;;
20014;SDS011;61787;42.022;23.078;2024-03-17T00:20:48;14.18;;;8.85;;
20014;SDS011;61787;42.022;23.078;2024-03-17T00:21:48;12.00;;;9.50;;
20014;SDS011;61787;42.022;23.078;2024-03-17T00:22:51;13.85;;;9.07;;
20014;SDS011;61787;42.022;23.078;2024-03-17T00:23:51;12.68;;;9.48;;
20014;SDS011;61787;42.022;23.078;2024-03-17T00:24:52;13.52;;;9.85;;
20014;SDS011;61787;42.022;23.078;2024-03-17T00:25:52;11.63;;;9.07;;
20014;SDS011;61787;42.022;23.078;2024-03-17T00:26:55;12.40;;;9.85;;
20014;SDS011;61787;42.022;23.078;2024-03-17T00:27:55;12.80;;;10.07;;
20014;SDS011;61787;42.022;23.078;2024-03-17T00:28:58;11.02;;;9.13;;
20014;SDS011;61787;42.022;23.078;2024-03-17T00:29:58;13.38;;;10.25;;
20014;SDS011;61787;42.022;23.078;2024-03-17T00:30:59;13.68;;;10.13;;
20014;SDS011;61787;42.022;23.078;2024-03-17T00:31:59;13.60;;;10.48;;
20014;SDS011;61787;42.022;23.078;2024-03-17T00:33:00;15.50;;;10.90;;
20014;SDS011;61787;42.022;23.078;2024-03-17T00:34:01;13.13;;;9.48;;
20014;SDS011;61787;42.022;23.078;2024-03-17T00:35:01;14.15;;;9.68;;
20014;SDS011;61787;42.022;23.078;2024-03-17T00:36:02;14.50;;;10.95;;
20014;SDS011;61787;42.022;23.078;2024-03-17T00:37:03;14.65;;;10.25;;
20014;SDS011;61787;42.022;23.078;2024-03-17T00:38:04;13.45;;;9.95;;
20014;SDS011;61787;42.022;23.078;2024-03-17T00:39:10;12.13;;;10.02;;
20014;SDS011;61787;42.022;23.078;2024-03-17T00:40:10;14.63;;;10.05;;
20014;SDS011;61787;42.022;23.078;2024-03-17T00:41:12;12.13;;;9.80;;
20014;SDS011;61787;42.022;23.078;2024-03-17T00:42:12;13.05;;;9.63;;
20014;SDS011;61787;42.022;23.078;2024-03-17T00:43:14;12.32;;;9.23;;
20014;SDS011;61787;42.022;23.078;2024-03-17T00:44:14;12.93;;;9.38;;
20014;SDS011;61787;42.022;23.078;2024-03-17T00:45:15;11.57;;;9.25;;
20014;SDS011;61787;42.022;23.078;2024-03-17T00:46:16;10.35;;;9.10;;
20014;SDS011;61787;42.022;23.078;2024-03-17T00:47:18;13.77;;;10.02;;
20014;SDS011;61787;42.022;23.078;2024-03-17T00:48:18;11.65;;;9.20;;
20014;SDS011;61787;42.022;23.078;2024-03-17T00:49:19;13.60;;;10.05;;
20014;SDS011;61787;42.022;23.078;2024-03-17T00:50:19;14.82;;;9.95;;
20014;SDS011;61787;42.022;23.078;2024-03-17T00:51:20;15.75;;;10.15;;
20014;SDS011;61787;42.022;23.078;2024-03-17T00:52:21;10.68;;;9.57;;
20014;SDS011;61787;42.022;23.078;2024-03-17T00:53:21;11.70;;;9.38;;
20014;SDS011;61787;42.022;23.078;2024-03-17T00:54:22;16.13;;;10.27;;
20014;SDS011;61787;42.022;23.078;2024-03-17T00:55:23;17.70;;;10.75;;
20014;SDS011;61787;42.022;23.078;2024-03-17T00:56:23;13.93;;;9.95;;
20014;SDS011;61787;42.022;23.078;2024-03-17T00:57:24;12.27;;;10.40;;
20014;SDS011;61787;42.022;23.078;2024-03-17T00:58:24;12.82;;;10.50;;
20014;SDS011;61787;42.022;23.078;2024-03-17T00:59:25;21.60;;;14.63;;
20014;SDS011;61787;42.022;23.078;2024-03-17T01:00:26;12.18;;;10.40;;
20014;SDS011;61787;42.022;23.078;2024-03-17T01:01:26;12.13;;;9.00;;
20014;SDS011;61787;42.022;23.078;2024-03-17T01:02:27;14.63;;;9.85;;
20014;SDS011;61787;42.022;23.078;2024-03-17T01:03:28;13.25;;;10.02;;
20014;SDS011;61787;42.022;23.078;2024-03-17T01:04:28;11.35;;;9.20;;
20014;SDS011;61787;42.022;23.078;2024-03-17T01:05:29;16.27;;;10.40;;
20014;SDS011;61787;42.022;23.078;2024-03-17T01:06:30;15.10;;;11.13;;
20014;SDS011;61787;42.022;23.078;2024-03-17T01:07:33;12.85;;;10.63;;
20014;SDS011;61787;42.022;23.078;2024-03-17T01:08:34;19.02;;;12.18;;
20014;SDS011;61787;42.022;23.078;2024-03-17T01:09:35;15.57;;;12.43;;
20014;SDS011;61787;42.022;23.078;2024-03-17T01:10:39;18.55;;;13.13;;
20014;SDS011;61787;42.022;23.078;2024-03-17T01:11:43;17.35;;;12.18;;
20014;SDS011;61787;42.022;23.078;2024-03-17T01:12:44;17.63;;;12.40;;
20014;SDS011;61787;42.022;23.078;2024-03-17T01:13:45;16.58;;;11.35;;
20014;SDS011;61787;42.022;23.078;2024-03-17T01:14:46;14.57;;;11.25;;
20014;SDS011;61787;42.022;23.078;2024-03-17T01:15:50;12.25;;;10.13;;
20014;SDS011;61787;42.022;23.078;2024-03-17T01:16:52;14.73;;;10.90;;
20014;SDS011;61787;42.022;23.078;2024-03-17T01:17:53;13.63;;;10.05;;
20014;SDS011;61787;42.022;23.078;2024-03-17T01:18:53;12.98;;;9.98;;
20014;SDS011;61787;42.022;23.078;2024-03-17T01:19:54;13.23;;;10.48;;
20014;SDS011;61787;42.022;23.078;2024-03-17T01:20:54;15.30;;;10.55;;
20014;SDS011;61787;42.022;23.078;2024-03-17T01:21:56;13.10;;;10.68;;
20014;SDS011;61787;42.022;23.078;2024-03-17T01:22:57;13.70;;;11.02;;
20014;SDS011;61787;42.022;23.078;2024-03-17T01:23:58;12.05;;;10.02;;
20014;SDS011;61787;42.022;23.078;2024-03-17T01:24:58;14.05;;;11.63;;
20014;SDS011;61787;42.022;23.078;2024-03-17T01:25:59;18.02;;;11.38;;
20014;SDS011;61787;42.022;23.078;2024-03-17T01:27:00;15.65;;;10.82;;
20014;SDS011;61787;42.022;23.078;2024-03-17T01:28:01;14.43;;;10.63;;
20014;SDS011;61787;42.022;23.078;2024-03-17T01:29:03;13.18;;;10.57;;
20014;SDS011;61787;42.022;23.078;2024-03-17T01:30:04;15.02;;;12.05;;
20014;SDS011;61787;42.022;23.078;2024-03-17T01:31:06;15.30;;;11.88;;
20014;SDS011;61787;42.022;23.078;2024-03-17T01:32:07;15.38;;;11.43;;
20014;SDS011;61787;42.022;23.078;2024-03-17T01:33:07;14.32;;;10.95;;
20014;SDS011;61787;42.022;23.078;2024-03-17T01:34:09;14.30;;;10.90;;
20014;SDS011;61787;42.022;23.078;2024-03-17T01:35:10;13.68;;;11.60;;
20014;SDS011;61787;42.022;23.078;2024-03-17T01:36:12;13.63;;;11.05;;
20014;SDS011;61787;42.022;23.078;2024-03-17T01:37:13;17.60;;;11.05;;
20014;SDS011;61787;42.022;23.078;2024-03-17T01:38:13;13.93;;;10.55;;
20014;SDS011;61787;42.022;23.078;2024-03-17T01:39:14;14.95;;;10.75;;
20014;SDS011;61787;42.022;23.078;2024-03-17T01:40:15;18.15;;;10.18;;
20014;SDS011;61787;42.022;23.078;2024-03-17T01:41:16;13.75;;;10.52;;
20014;SDS011;61787;42.022;23.078;2024-03-17T01:42:17;11.73;;;9.85;;
20014;SDS011;61787;42.022;23.078;2024-03-17T01:43:17;14.15;;;10.48;;
20014;SDS011;61787;42.022;23.078;2024-03-17T01:44:22;12.50;;;9.43;;
20014;SDS011;61787;42.022;23.078;2024-03-17T01:45:28;13.05;;;10.15;;
20014;SDS011;61787;42.022;23.078;2024-03-17T01:46:28;13.35;;;9.85;;
20014;SDS011;61787;42.022;23.078;2024-03-17T01:47:29;12.88;;;10.50;;
20014;SDS011;61787;42.022;23.078;2024-03-17T01:48:30;13.88;;;10.82;;
20014;SDS011;61787;42.022;23.078;2024-03-17T01:49:31;11.60;;;10.35;;
20014;SDS011;61787;42.022;23.078;2024-03-17T01:50:32;11.75;;;9.68;;
20014;SDS011;61787;42.022;23.078;2024-03-17T01:51:35;15.48;;;10.90;;
20014;SDS011;61787;42.022;23.078;2024-03-17T01:52:36;12.13;;;9.80;;
20014;SDS011;61787;42.022;23.078;2024-03-17T01:53:37;12.63;;;10.43;;
20014;SDS011;61787;42.022;23.078;2024-03-17T01:54:39;16.05;;;10.68;;
20014;SDS011;61787;42.022;23.078;2024-03-17T01:55:42;13.85;;;11.02;;
20014;SDS011;61787;42.022;23.078;2024-03-17T01:56:44;12.70;;;10.50;;
20014;SDS011;61787;42.022;23.078;2024-03-17T01:57:45;12.57;;;9.68;;
20014;SDS011;61787;42.022;23.078;2024-03-17T01:58:46;15.55;;;11.02;;
20014;SDS011;61787;42.022;23.078;2024-03-17T01:59:47;12.57;;;10.40;;
20014;SDS011;61787;42.022;23.078;2024-03-17T02:00:48;12.60;;;10.65;;
20014;SDS011;61787;42.022;23.078;2024-03-17T02:01:48;12.30;;;9.95;;
20014;SDS011;61787;42.022;23.078;2024-03-17T02:02:49;15.25;;;10.57;;
20014;SDS011;61787;42.022;23.078;2024-03-17T02:03:51;14.98;;;10.02;;
20014;SDS011;61787;42.022;23.078;2024-03-17T02:04:52;13.27;;;10.73;;
20014;SDS011;61787;42.022;23.078;2024-03-17T02:05:53;12.75;;;9.77;;
20014;SDS011;61787;42.022;23.078;2024-03-17T02:06:53;14.15;;;9.98;;
20014;SDS011;61787;42.022;23.078;2024-03-17T02:07:54;13.00;;;10.00;;
20014;SDS011;61787;42.022;23.078;2024-03-17T02:08:55;11.43;;;8.93;;
20014;SDS011;61787;42.022;23.078;2024-03-17T02:09:56;11.95;;;9.60;;
20014;SDS011;61787;42.022;23.078;2024-03-17T02:10:57;13.73;;;9.50;;
20014;SDS011;61787;42.022;23.078;2024-03-17T02:11:58;10.73;;;9.60;;
20014;SDS011;61787;42.022;23.078;2024-03-17T02:12:59;12.07;;;9.38;;
20014;SDS011;61787;42.022;23.078;2024-03-17T02:14:01;12.20;;;9.73;;
20014;SDS011;61787;42.022;23.078;2024-03-17T02:15:02;12.95;;;9.55;;
20014;SDS011;61787;42.022;23.078;2024-03-17T02:16:06;12.05;;;9.70;;
20014;SDS011;61787;42.022;23.078;2024-03-17T02:17:06;11.52;;;9.65;;
20014;SDS011;61787;42.022;23.078;2024-03-17T02:18:07;12.27;;;10.00;;
20014;SDS011;61787;42.022;23.078;2024-03-17T02:19:07;14.80;;;10.13;;
20014;SDS011;61787;42.022;23.078;2024-03-17T02:20:08;11.38;;;9.65;;
20014;SDS011;61787;42.022;23.078;2024-03-17T02:21:12;12.82;;;9.90;;
20014;SDS011;61787;42.022;23.078;2024-03-17T02:22:13;12.40;;;9.80;;
20014;SDS011;61787;42.022;23.078;2024-03-17T02:23:15;15.13;;;10.32;;
20014;SDS011;61787;42.022;23.078;2024-03-17T02:24:16;13.93;;;11.00;;
20014;SDS011;61787;42.022;23.078;2024-03-17T02:25:16;11.50;;;9.90;;
20014;SDS011;61787;42.022;23.078;2024-03-17T02:26:17;13.85;;;10.82;;
20014;SDS011;61787;42.022;23.078;2024-03-17T02:27:18;13.52;;;10.15;;
20014;SDS011;61787;42.022;23.078;2024-03-17T02:28:19;11.13;;;9.90;;
20014;SDS011;61787;42.022;23.078;2024-03-17T02:29:20;14.02;;;10.50;;
20014;SDS011;61787;42.022;23.078;2024-03-17T02:30:20;15.77;;;11.07;;
20014;SDS011;61787;42.022;23.078;2024-03-17T02:31:21;11.73;;;10.38;;
20014;SDS011;61787;42.022;23.078;2024-03-17T02:32:25;11.93;;;10.13;;
20014;SDS011;61787;42.022;23.078;2024-03-17T02:33:28;12.88;;;10.52;;
20014;SDS011;61787;42.022;23.078;2024-03-17T02:34:28;13.48;;;10.95;;
20014;SDS011;61787;42.022;23.078;2024-03-17T02:35:29;12.68;;;10.52;;
20014;SDS011;61787;42.022;23.078;2024-03-17T02:36:29;15.65;;;11.05;;
20014;SDS011;61787;42.022;23.078;2024-03-17T02:37:30;12.90;;;10.68;;
20014;SDS011;61787;42.022;23.078;2024-03-17T02:38:31;13.20;;;10.18;;
20014;SDS011;61787;42.022;23.078;2024-03-17T02:39:50;12.65;;;10.32;;
20014;SDS011;61787;42.022;23.078;2024-03-17T02:40:51;14.30;;;10.85;;
20014;SDS011;61787;42.022;23.078;2024-03-17T02:41:51;12.85;;;10.13;;
20014;SDS011;61787;42.022;23.078;2024-03-17T02:42:52;14.60;;;10.90;;
20014;SDS011;61787;42.022;23.078;2024-03-17T02:43:52;15.05;;;11.07;;
20014;SDS011;61787;42.022;23.078;2024-03-17T02:44:53;13.77;;;10.38;;
20014;SDS011;61787;42.022;23.078;2024-03-17T02:45:54;14.27;;;11.57;;
20014;SDS011;61787;42.022;23.078;2024-03-17T02:46:54;13.55;;;11.43;;
20014;SDS011;61787;42.022;23.078;2024-03-17T02:47:55;14.90;;;11.30;;
20014;SDS011;61787;42.022;23.078;2024-03-17T02:48:56;14.35;;;11.50;;
20014;SDS011;61787;42.022;23.078;2024-03-17T02:49:56;12.85;;;10.90;;
20014;SDS011;61787;42.022;23.078;2024-03-17T02:50:57;14.73;;;11.10;;
20014;SDS011;61787;42.022;23.078;2024-03-17T02:51:58;15.18;;;11.80;;
20014;SDS011;61787;42.022;23.078;2024-03-17T02:52:59;13.50;;;10.25;;
20014;SDS011;61787;42.022;23.078;2024-03-17T02:54:00;14.25;;;10.52;;
20014;SDS011;61787;42.022;23.078;2024-03-17T02:55:01;12.77;;;10.52;;
20014;SDS011;61787;42.022;23.078;2024-03-17T02:56:01;14.07;;;10.60;;
20014;SDS011;61787;42.022;23.078;2024-03-17T02:57:02;11.68;;;10.45;;
20014;SDS011;61787;42.022;23.078;2024-03-17T02:58:04;13.82;;;10.68;;
20014;SDS011;61787;42.022;23.078;2024-03-17T02:59:04;13.60;;;10.35;;
20014;SDS011;61787;42.022;23.078;2024-03-17T03:00:05;12.25;;;10.30;;
20014;SDS011;61787;42.022;23.078;2024-03-17T03:01:09;13.13;;;9.82;;
20014;SDS011;61787;42.022;23.078;2024-03-17T03:02:10;13.02;;;9.55;;
20014;SDS011;61787;42.022;23.078;2024-03-17T03:03:11;11.57;;;9.98;;
20014;SDS011;61787;42.022;23.078;2024-03-17T03:04:11;12.75;;;10.38;;
20014;SDS011;61787;42.022;23.078;2024-03-17T03:05:12;11.00;;;9.80;;
20014;SDS011;61787;42.022;23.078;2024-03-17T03:06:14;12.25;;;10.43;;
20014;SDS011;61787;42.022;23.078;2024-03-17T03:07:18;14.85;;;10.70;;
20014;SDS011;61787;42.022;23.078;2024-03-17T03:08:19;14.35;;;11.38;;
20014;SDS011;61787;42.022;23.078;2024-03-17T03:09:20;13.98;;;11.02;;
20014;SDS011;61787;42.022;23.078;2024-03-17T03:10:25;15.55;;;11.95;;
20014;SDS011;61787;42.022;23.078;2024-03-17T03:11:26;16.00;;;11.93;;
20014;SDS011;61787;42.022;23.078;2024-03-17T03:12:26;13.60;;;11.27;;
20014;SDS011;61787;42.022;23.078;2024-03-17T03:13:27;14.48;;;10.90;;
20014;SDS011;61787;42.022;23.078;2024-03-17T03:14:28;14.10;;;11.80;;
20014;SDS011;61787;42.022;23.078;2024-03-17T03:15:30;15.73;;;11.18;;
20014;SDS011;61787;42.022;23.078;2024-03-17T03:16:33;13.73;;;11.70;;
20014;SDS011;61787;42.022;23.078;2024-03-17T03:17:33;13.48;;;11.90;;
20014;SDS011;61787;42.022;23.078;2024-03-17T03:18:35;17.05;;;12.13;;
20014;SDS011;61787;42.022;23.078;2024-03-17T03:19:36;13.23;;;11.65;;
20014;SDS011;61787;42.022;23.078;2024-03-17T03:20:36;13.38;;;11.07;;
20014;SDS011;61787;42.022;23.078;2024-03-17T03:21:37;13.05;;;11.07;;
20014;SDS011;61787;42.022;23.078;2024-03-17T03:22:37;15.15;;;11.73;;
20014;SDS011;61787;42.022;23.078;2024-03-17T03:23:38;17.52;;;11.35;;
20014;SDS011;61787;42.022;23.078;2024-03-17T03:24:39;14.60;;;11.80;;
20014;SDS011;61787;42.022;23.078;2024-03-17T03:25:39;13.57;;;10.60;;
20014;SDS011;61787;42.022;23.078;2024-03-17T03:26:40;14.57;;;11.93;;
20014;SDS011;61787;42.022;23.078;2024-03-17T03:27:41;15.52;;;11.43;;
20014;SDS011;61787;42.022;23.078;2024-03-17T03:28:41;15.25;;;11.45;;
20014;SDS011;61787;42.022;23.078;2024-03-17T03:29:42;15.85;;;10.85;;
20014;SDS011;61787;42.022;23.078;2024-03-17T03:30:42;17.75;;;12.15;;
20014;SDS011;61787;42.022;23.078;2024-03-17T03:31:43;14.80;;;11.65;;
20014;SDS011;61787;42.022;23.078;2024-03-17T03:32:43;20.73;;;12.32;;
20014;SDS011;61787;42.022;23.078;2024-03-17T03:33:44;15.35;;;11.82;;
20014;SDS011;61787;42.022;23.078;2024-03-17T03:34:45;15.60;;;10.52;;
20014;SDS011;61787;42.022;23.078;2024-03-17T03:35:45;13.15;;;10.57;;
20014;SDS011;61787;42.022;23.078;2024-03-17T03:36:46;16.48;;;11.32;;
20014;SDS011;61787;42.022;23.078;2024-03-17T03:37:47;14.60;;;10.88;;
20014;SDS011;61787;42.022;23.078;2024-03-17T03:38:47;15.68;;;10.95;;
20014;SDS011;61787;42.022;23.078;2024-03-17T03:39:48;15.27;;;11.27;;
20014;SDS011;61787;42.022;23.078;2024-03-17T03:40:51;14.48;;;11.45;;
20014;SDS011;61787;42.022;23.078;2024-03-17T03:41:52;14.77;;;11.90;;
20014;SDS011;61787;42.022;23.078;2024-03-17T03:42:55;14.95;;;12.75;;
20014;SDS011;61787;42.022;23.078;2024-03-17T03:43:56;15.23;;;11.88;;
20014;SDS011;61787;42.022;23.078;2024-03-17T03:44:57;16.42;;;11.57;;
20014;SDS011;61787;42.022;23.078;2024-03-17T03:45:59;14.82;;;12.13;;
20014;SDS011;61787;42.022;23.078;2024-03-17T03:47:00;14.73;;;11.63;;
20014;SDS011;61787;42.022;23.078;2024-03-17T03:48:01;16.55;;;12.65;;
20014;SDS011;61787;42.022;23.078;2024-03-17T03:49:05;14.15;;;12.15;;
20014;SDS011;61787;42.022;23.078;2024-03-17T03:50:09;17.77;;;11.80;;
20014;SDS011;61787;42.022;23.078;2024-03-17T03:51:10;16.52;;;11.90;;
20014;SDS011;61787;42.022;23.078;2024-03-17T03:52:11;18.40;;;12.13;;
20014;SDS011;61787;42.022;23.078;2024-03-17T03:53:12;17.15;;;11.93;;
20014;SDS011;61787;42.022;23.078;2024-03-17T03:54:13;15.02;;;11.98;;
20014;SDS011;61787;42.022;23.078;2024-03-17T03:55:15;15.07;;;11.57;;
20014;SDS011;61787;42.022;23.078;2024-03-17T03:56:16;12.45;;;10.48;;
20014;SDS011;61787;42.022;23.078;2024-03-17T03:57:17;15.13;;;12.15;;
20014;SDS011;61787;42.022;23.078;2024-03-17T03:58:17;13.85;;;10.80;;
20014;SDS011;61787;42.022;23.078;2024-03-17T03:59:18;16.27;;;11.07;;
20014;SDS011;61787;42.022;23.078;2024-03-17T04:00:19;15.27;;;12.10;;
20014;SDS011;61787;42.022;23.078;2024-03-17T04:01:23;14.15;;;11.80;;
20014;SDS011;61787;42.022;23.078;2024-03-17T04:02:24;15.48;;;11.15;;
20014;SDS011;61787;42.022;23.078;2024-03-17T04:03:27;14.73;;;12.02;;
20014;SDS011;61787;42.022;23.078;2024-03-17T04:04:28;14.90;;;11.07;;
20014;SDS011;61787;42.022;23.078;2024-03-17T04:05:29;15.48;;;11.48;;
20014;SDS011;61787;42.022;23.078;2024-03-17T04:06:30;14.20;;;11.65;;
20014;SDS011;61787;42.022;23.078;2024-03-17T04:07:31;19.30;;;12.32;;
20014;SDS011;61787;42.022;23.078;2024-03-17T04:08:35;13.70;;;10.75;;
20014;SDS011;61787;42.022;23.078;2024-03-17T04:09:37;14.02;;;11.35;;
20014;SDS011;61787;42.022;23.078;2024-03-17T04:10:38;15.25;;;12.00;;
20014;SDS011;61787;42.022;23.078;2024-03-17T04:11:38;16.40;;;11.93;;
20014;SDS011;61787;42.022;23.078;2024-03-17T04:12:39;15.90;;;12.18;;
20014;SDS011;61787;42.022;23.078;2024-03-17T04:13:40;15.70;;;12.15;;
20014;SDS011;61787;42.022;23.078;2024-03-17T04:14:41;13.60;;;10.98;;
20014;SDS011;61787;42.022;23.078;2024-03-17T04:15:42;13.77;;;11.65;;
20014;SDS011;61787;42.022;23.078;2024-03-17T04:16:43;14.70;;;11.05;;
20014;SDS011;61787;42.022;23.078;2024-03-17T04:17:44;13.90;;;11.23;;
20014;SDS011;61787;42.022;23.078;2024-03-17T04:18:44;15.07;;;11.70;;
20014;SDS011;61787;42.022;23.078;2024-03-17T04:19:45;16.60;;;11.95;;
20014;SDS011;61787;42.022;23.078;2024-03-17T04:20:46;14.77;;;11.80;;
20014;SDS011;61787;42.022;23.078;2024-03-17T04:21:46;12.65;;;10.10;;
20014;SDS011;61787;42.022;23.078;2024-03-17T04:22:47;15.35;;;12.02;;
20014;SDS011;61787;42.022;23.078;2024-03-17T04:23:48;14.70;;;11.32;;
20014;SDS011;61787;42.022;23.078;2024-03-17T04:24:49;14.75;;;11.98;;
20014;SDS011;61787;42.022;23.078;2024-03-17T04:25:53;14.55;;;11.30;;
20014;SDS011;61787;42.022;23.078;2024-03-17T04:26:54;15.05;;;11.13;;
20014;SDS011;61787;42.022;23.078;2024-03-17T04:27:54;15.15;;;11.35;;
20014;SDS011;61787;42.022;23.078;2024-03-17T04:28:55;16.45;;;11.65;;
20014;SDS011;61787;42.022;23.078;2024-03-17T04:29:58;16.23;;;11.45;;
20014;SDS011;61787;42.022;23.078;2024-03-17T04:31:05;14.27;;;11.93;;
20014;SDS011;61787;42.022;23.078;2024-03-17T04:32:06;17.25;;;11.98;;
20014;SDS011;61787;42.022;23.078;2024-03-17T04:33:07;14.07;;;11.18;;
20014;SDS011;61787;42.022;23.078;2024-03-17T04:34:08;15.15;;;11.45;;
20014;SDS011;61787;42.022;23.078;2024-03-17T04:35:08;17.40;;;12.52;;
20014;SDS011;61787;42.022;23.078;2024-03-17T04:36:09;16.70;;;12.60;;
20014;SDS011;61787;42.022;23.078;2024-03-17T04:37:09;14.10;;;11.57;;
20014;SDS011;61787;42.022;23.078;2024-03-17T04:38:13;13.30;;;11.13;;
20014;SDS011;61787;42.022;23.078;2024-03-17T04:39:14;15.43;;;11.95;;
20014;SDS011;61787;42.022;23.078;2024-03-17T04:40:15;17.65;;;12.73;;
20014;SDS011;61787;42.022;23.078;2024-03-17T04:41:16;17.00;;;12.55;;
20014;SDS011;61787;42.022;23.078;2024-03-17T04:42:17;17.42;;;12.52;;
20014;SDS011;61787;42.022;23.078;2024-03-17T04:43:18;16.27;;;12.73;;
20014;SDS011;61787;42.022;23.078;2024-03-17T04:44:21;15.77;;;11.90;;
20014;SDS011;61787;42.022;23.078;2024-03-17T04:45:21;18.77;;;11.63;;
20014;SDS011;61787;42.022;23.078;2024-03-17T04:46:22;19.65;;;13.43;;
20014;SDS011;61787;42.022;23.078;2024-03-17T04:47:22;15.57;;;11.75;;
20014;SDS011;61787;42.022;23.078;2024-03-17T04:48:23;18.80;;;12.60;;
20014;SDS011;61787;42.022;23.078;2024-03-17T04:49:24;16.08;;;12.18;;
20014;SDS011;61787;42.022;23.078;2024-03-17T04:50:24;16.77;;;12.45;;
20014;SDS011;61787;42.022;23.078;2024-03-17T04:51:26;17.25;;;12.95;;
20014;SDS011;61787;42.022;23.078;2024-03-17T04:52:27;18.25;;;12.45;;
20014;SDS011;61787;42.022;23.078;2024-03-17T04:53:28;16.95;;;13.00;;
20014;SDS011;61787;42.022;23.078;2024-03-17T04:54:30;17.95;;;13.40;;
20014;SDS011;61787;42.022;23.078;2024-03-17T04:55:31;17.58;;;13.15;;
20014;SDS011;61787;42.022;23.078;2024-03-17T04:56:32;16.98;;;13.02;;
20014;SDS011;61787;42.022;23.078;2024-03-17T04:57:33;18.42;;;13.43;;
20014;SDS011;61787;42.022;23.078;2024-03-17T04:58:34;17.15;;;12.98;;
20014;SDS011;61787;42.022;23.078;2024-03-17T04:59:35;17.80;;;13.20;;
20014;SDS011;61787;42.022;23.078;2024-03-17T05:00:36;17.38;;;13.00;;
20014;SDS011;61787;42.022;23.078;2024-03-17T05:01:36;16.00;;;13.07;;
20014;SDS011;61787;42.022;23.078;2024-03-17T05:02:37;17.23;;;13.05;;
20014;SDS011;61787;42.022;23.078;2024-03-17T05:03:38;20.83;;;14.32;;
20014;SDS011;61787;42.022;23.078;2024-03-17T05:04:39;17.02;;;13.35;;
20014;SDS011;61787;42.022;23.078;2024-03-17T05:05:40;16.83;;;13.55;;
20014;SDS011;61787;42.022;23.078;2024-03-17T05:06:40;20.45;;;14.65;;
20014;SDS011;61787;42.022;23.078;2024-03-17T05:07:47;18.30;;;13.25;;
20014;SDS011;61787;42.022;23.078;2024-03-17T05:08:48;20.33;;;12.63;;
20014;SDS011;61787;42.022;23.078;2024-03-17T05:09:48;16.60;;;12.27;;
20014;SDS011;61787;42.022;23.078;2024-03-17T05:10:55;17.40;;;13.30;;
20014;SDS011;61787;42.022;23.078;2024-03-17T05:11:59;21.00;;;12.93;;
20014;SDS011;61787;42.022;23.078;2024-03-17T05:12:59;16.38;;;13.70;;
20014;SDS011;61787;42.022;23.078;2024-03-17T05:14:00;20.00;;;12.80;;
20014;SDS011;61787;42.022;23.078;2024-03-17T05:15:01;16.85;;;13.45;;
20014;SDS011;61787;42.022;23.078;2024-03-17T05:16:02;19.95;;;13.50;;
20014;SDS011;61787;42.022;23.078;2024-03-17T05:17:05;16.65;;;13.85;;
20014;SDS011;61787;42.022;23.078;2024-03-17T05:18:06;16.45;;;13.30;;
20014;SDS011;61787;42.022;23.078;2024-03-17T05:19:07;16.63;;;12.70;;
20014;SDS011;61787;42.022;23.078;2024-03-17T05:20:09;16.13;;;13.70;;
20014;SDS011;61787;42.022;23.078;2024-03-17T05:21:10;18.48;;;14.85;;
20014;SDS011;61787;42.022;23.078;2024-03-17T05:22:11;19.35;;;13.23;;
20014;SDS011;61787;42.022;23.078;2024-03-17T05:23:12;15.65;;;12.32;;
20014;SDS011;61787;42.022;23.078;2024-03-17T05:24:14;14.88;;;12.50;;
20014;SDS011;61787;42.022;23.078;2024-03-17T05:25:14;17.48;;;13.55;;
20014;SDS011;61787;42.022;23.078;2024-03-17T05:26:15;17.02;;;13.07;;
20014;SDS011;61787;42.022;23.078;2024-03-17T05:27:16;15.40;;;12.05;;
20014;SDS011;61787;42.022;23.078;2024-03-17T05:28:16;16.67;;;13.05;;
20014;SDS011;61787;42.022;23.078;2024-03-17T05:29:17;18.77;;;13.10;;
20014;SDS011;61787;42.022;23.078;2024-03-17T05:30:18;16.58;;;13.13;;
20014;SDS011;61787;42.022;23.078;2024-03-17T05:31:18;16.70;;;13.05;;
20014;SDS011;61787;42.022;23.078;2024-03-17T05:32:21;19.08;;;13.48;;
20014;SDS011;61787;42.022;23.078;2024-03-17T05:33:22;17.75;;;13.38;;
20014;SDS011;61787;42.022;23.078;2024-03-17T05:34:24;16.73;;;12.77;;
20014;SDS011;61787;42.022;23.078;2024-03-17T05:35:24;19.40;;;12.80;;
20014;SDS011;61787;42.022;23.078;2024-03-17T05:36:25;18.63;;;13.32;;
20014;SDS011;61787;42.022;23.078;2024-03-17T05:37:26;15.20;;;12.20;;
20014;SDS011;61787;42.022;23.078;2024-03-17T05:38:28;16.20;;;13.18;;
20014;SDS011;61787;42.022;23.078;2024-03-17T05:39:29;18.08;;;13.25;;
20014;SDS011;61787;42.022;23.078;2024-03-17T05:40:30;19.10;;;13.20;;
20014;SDS011;61787;42.022;23.078;2024-03-17T05:41:31;16.73;;;13.05;;
20014;SDS011;61787;42.022;23.078;2024-03-17T05:42:32;16.02;;;12.98;;
20014;SDS011;61787;42.022;23.078;2024-03-17T05:43:33;20.25;;;13.88;;
20014;SDS011;61787;42.022;23.078;2024-03-17T05:44:37;20.42;;;13.63;;
20014;SDS011;61787;42.022;23.078;2024-03-17T05:45:53;17.05;;;12.77;;
20014;SDS011;61787;42.022;23.078;2024-03-17T05:46:54;16.40;;;12.60;;
20014;SDS011;61787;42.022;23.078;2024-03-17T05:47:58;17.80;;;11.82;;
20014;SDS011;61787;42.022;23.078;2024-03-17T05:48:58;16.13;;;13.15;;
20014;SDS011;61787;42.022;23.078;2024-03-17T05:49:59;16.85;;;12.35;;
20014;SDS011;61787;42.022;23.078;2024-03-17T05:51:02;16.33;;;12.85;;
20014;SDS011;61787;42.022;23.078;2024-03-17T05:52:03;15.90;;;11.98;;
20014;SDS011;61787;42.022;23.078;2024-03-17T05:53:04;18.83;;;13.60;;
20014;SDS011;61787;42.022;23.078;2024-03-17T05:54:04;17.55;;;12.82;;